Time;durP1;ratioP1;P1;durP2;ratioP2;P2;SDS_P1;SDS_P2;PMS_P1;PMS_P2;Temp;Humidity;BMP_temperature;BMP_pressure;BME280_temperature;BME280_humidity;BME280_pressure;Samples;Min_cycle;Max_cycle;Signal;HPM_P1;HPM_P2
2023/01/28 00:01:20;;;;;;;9.80;6.63;;;;;;;;;;5032311;28;20037;-78
2023/01/28 00:03:51;;;;;;;9.33;5.93;;;;;;;;;;5030994;28;20030;-78
2023/01/28 00:06:20;;;;;;;10.47;6.30;;;;;;;;;;5032304;28;20041;-78
2023/01/28 00:08:46;;;;;;;7.90;5.37;;;;;;;;;;5032518;28;20108;-78
2023/01/28 00:11:13;;;;;;;7.37;4.97;;;;;;;;;;5032437;28;20039;-78
2023/01/28 00:13:39;;;;;;;9.63;5.47;;;;;;;;;;5035418;28;20033;-78
2023/01/28 00:16:07;;;;;;;8.67;5.60;;;;;;;;;;5036424;28;20038;-79
2023/01/28 00:18:33;;;;;;;7.63;4.73;;;;;;;;;;5035882;28;20045;-78
2023/01/28 00:21:07;;;;;;;7.27;5.00;;;;;;;;;;5036232;28;20042;-77
2023/01/28 00:23:34;;;;;;;7.50;4.83;;;;;;;;;;5036424;28;20104;-77
2023/01/28 00:26:01;;;;;;;8.87;5.37;;;;;;;;;;5036039;28;20033;-79
2023/01/28 00:28:27;;;;;;;7.70;5.20;;;;;;;;;;5036054;28;20371;-78
2023/01/28 00:30:53;;;;;;;8.33;5.33;;;;;;;;;;5036053;28;20064;-78
2023/01/28 00:33:19;;;;;;;7.73;4.97;;;;;;;;;;5035943;28;20517;-78
2023/01/28 00:35:46;;;;;;;10.30;5.87;;;;;;;;;;5035985;28;20029;-78
2023/01/28 00:38:12;;;;;;;9.23;5.97;;;;;;;;;;5035601;28;20041;-78
2023/01/28 00:40:38;;;;;;;8.97;5.60;;;;;;;;;;5036208;28;20041;-78
2023/01/28 00:43:04;;;;;;;8.60;5.83;;;;;;;;;;5035908;28;20061;-77
2023/01/28 00:45:30;;;;;;;8.70;5.03;;;;;;;;;;5035685;28;20048;-77
2023/01/28 00:47:56;;;;;;;9.13;5.93;;;;;;;;;;5035645;28;20479;-78
2023/01/28 00:50:22;;;;;;;9.20;5.77;;;;;;;;;;5035666;28;20041;-78
2023/01/28 00:52:48;;;;;;;9.70;5.70;;;;;;;;;;5035843;28;20091;-78
2023/01/28 00:55:15;;;;;;;8.13;5.63;;;;;;;;;;5035520;28;20481;-79
2023/01/28 00:57:41;;;;;;;11.33;5.90;;;;;;;;;;5035687;28;20479;-78
2023/01/28 01:00:07;;;;;;;9.37;6.10;;;;;;;;;;5035234;28;20049;-79
2023/01/28 01:02:33;;;;;;;8.10;5.50;;;;;;;;;;5035654;28;20045;-78
2023/01/28 01:05:00;;;;;;;10.43;5.90;;;;;;;;;;5034351;28;20061;-78
2023/01/28 01:07:42;;;;;;;9.47;5.90;;;;;;;;;;5035140;28;20053;-78
2023/01/28 01:10:12;;;;;;;9.07;5.60;;;;;;;;;;5034922;28;20500;-79
2023/01/28 01:12:39;;;;;;;9.30;5.60;;;;;;;;;;5035054;28;20079;-78
2023/01/28 01:15:09;;;;;;;8.57;5.77;;;;;;;;;;5034052;28;20061;-79
2023/01/28 01:17:38;;;;;;;9.23;5.63;;;;;;;;;;5034146;28;20133;-79
2023/01/28 01:20:05;;;;;;;9.80;6.03;;;;;;;;;;5035098;28;20030;-79
2023/01/28 01:22:35;;;;;;;11.83;6.10;;;;;;;;;;5035372;28;20395;-78
2023/01/28 01:25:02;;;;;;;10.67;6.00;;;;;;;;;;5035172;28;20105;-78
2023/01/28 01:27:29;;;;;;;13.63;6.40;;;;;;;;;;5035153;28;20071;-78
2023/01/28 01:29:55;;;;;;;16.93;5.53;;;;;;;;;;5034722;28;20034;-78
2023/01/28 01:32:21;;;;;;;10.23;6.23;;;;;;;;;;5034828;28;20032;-78
2023/01/28 01:34:47;;;;;;;12.53;6.37;;;;;;;;;;5034629;28;20514;-78
2023/01/28 01:37:13;;;;;;;11.53;5.77;;;;;;;;;;5034811;28;20038;-79
2023/01/28 01:39:39;;;;;;;12.77;6.60;;;;;;;;;;5034722;28;20034;-79
2023/01/28 01:42:05;;;;;;;12.70;6.87;;;;;;;;;;5034717;28;20104;-78
2023/01/28 01:44:50;;;;;;;11.90;6.70;;;;;;;;;;5034633;28;20083;-77
2023/01/28 01:47:17;;;;;;;11.20;6.87;;;;;;;;;;5033603;28;20144;-79
2023/01/28 01:49:43;;;;;;;11.93;6.90;;;;;;;;;;5034805;28;20021;-79
2023/01/28 01:52:16;;;;;;;11.63;6.67;;;;;;;;;;5034661;28;20040;-78
2023/01/28 01:54:45;;;;;;;14.47;7.40;;;;;;;;;;5034569;28;20030;-79
2023/01/28 01:57:14;;;;;;;13.63;7.63;;;;;;;;;;5034856;28;20033;-78
2023/01/28 01:59:42;;;;;;;14.67;7.20;;;;;;;;;;5030951;28;20132;-79
2023/01/28 02:02:09;;;;;;;13.50;7.20;;;;;;;;;;5030034;28;20037;-78
2023/01/28 02:04:38;;;;;;;12.10;6.97;;;;;;;;;;5032352;28;20091;-77
2023/01/28 02:07:05;;;;;;;13.10;6.83;;;;;;;;;;5033798;28;20048;-78
2023/01/28 02:09:34;;;;;;;13.77;7.53;;;;;;;;;;5033835;28;20056;-78
2023/01/28 02:12:09;;;;;;;11.63;6.90;;;;;;;;;;5033930;28;20037;-78
2023/01/28 02:14:37;;;;;;;11.87;7.17;;;;;;;;;;5033811;28;20525;-78
2023/01/28 02:17:04;;;;;;;11.13;6.90;;;;;;;;;;5034219;28;20084;-78
2023/01/28 02:19:42;;;;;;;13.07;7.43;;;;;;;;;;5032679;28;20034;-78
2023/01/28 02:22:35;;;;;;;11.13;7.27;;;;;;;;;;5033960;28;20550;-77
2023/01/28 02:25:20;;;;;;;11.60;6.68;;;;;;;;;;5034235;28;20038;-78
2023/01/28 02:28:05;;;;;;;11.47;6.93;;;;;;;;;;5033701;28;20041;-78
2023/01/28 02:30:42;;;;;;;11.13;6.60;;;;;;;;;;5033908;28;20041;-77
2023/01/28 02:33:12;;;;;;;12.10;7.67;;;;;;;;;;5033487;28;20483;-78
2023/01/28 02:35:46;;;;;;;11.73;7.27;;;;;;;;;;5033269;28;20029;-78
2023/01/28 02:38:30;;;;;;;11.07;6.97;;;;;;;;;;5033756;28;20061;-77
2023/01/28 02:41:01;;;;;;;10.77;6.83;;;;;;;;;;5033817;28;20040;-78
2023/01/28 02:43:40;;;;;;;12.40;7.53;;;;;;;;;;5033975;28;20037;-78
2023/01/28 02:49:11;;;;;;;11.02;7.13;;;;;;;;;;5033624;28;20041;-77
2023/01/28 02:52:01;;;;;;;14.20;7.20;;;;;;;;;;5032074;28;20122;-78
2023/01/28 02:54:30;;;;;;;13.50;7.87;;;;;;;;;;5031888;28;20083;-78
2023/01/28 02:57:15;;;;;;;12.40;7.93;;;;;;;;;;5031675;28;20052;-78
2023/01/28 02:59:50;;;;;;;13.17;7.80;;;;;;;;;;5032977;28;20057;-77
2023/01/28 03:02:19;;;;;;;13.17;8.17;;;;;;;;;;5033527;28;20037;-76
2023/01/28 03:04:59;;;;;;;12.50;8.50;;;;;;;;;;5033285;28;20041;-78
2023/01/28 03:07:28;;;;;;;16.63;8.70;;;;;;;;;;5031608;28;20048;-78
2023/01/28 03:09:57;;;;;;;22.27;11.33;;;;;;;;;;5031780;28;20483;-79
2023/01/28 03:37:27;;;;;;;18.73;9.80;;;;;;;;;;5033123;28;20091;-78
2023/01/28 03:39:56;;;;;;;16.43;9.13;;;;;;;;;;5032770;28;20037;-78
2023/01/28 03:42:22;;;;;;;20.83;9.63;;;;;;;;;;5032743;28;20098;-78
2023/01/28 03:44:51;;;;;;;18.97;9.67;;;;;;;;;;5032392;28;20034;-78
2023/01/28 03:47:22;;;;;;;16.63;9.30;;;;;;;;;;5031711;28;20042;-76
2023/01/28 03:49:49;;;;;;;15.37;8.43;;;;;;;;;;5032560;28;20029;-77
2023/01/28 03:52:18;;;;;;;16.10;8.27;;;;;;;;;;5032506;28;20038;-77
2023/01/28 03:54:47;;;;;;;16.70;9.20;;;;;;;;;;5032479;28;20489;-77
2023/01/28 03:57:17;;;;;;;14.30;8.23;;;;;;;;;;5031651;28;20183;-76
2023/01/28 03:59:43;;;;;;;16.07;8.33;;;;;;;;;;5032159;28;20053;-77
2023/01/28 04:02:12;;;;;;;13.83;8.10;;;;;;;;;;5032461;28;20557;-77
2023/01/28 04:04:39;;;;;;;13.47;8.40;;;;;;;;;;5032226;28;20081;-77
2023/01/28 04:07:07;;;;;;;15.77;8.23;;;;;;;;;;5031100;28;20634;-77
2023/01/28 04:09:34;;;;;;;17.93;8.83;;;;;;;;;;5032515;28;20112;-77
2023/01/28 04:12:00;;;;;;;14.53;7.97;;;;;;;;;;5032423;28;20026;-77
2023/01/28 04:14:26;;;;;;;13.70;8.67;;;;;;;;;;5031017;28;20036;-77
2023/01/28 04:16:55;;;;;;;15.23;9.07;;;;;;;;;;5032050;28;20061;-76
2023/01/28 04:19:22;;;;;;;13.83;8.37;;;;;;;;;;5032239;28;20029;-77
2023/01/28 04:21:48;;;;;;;13.63;8.57;;;;;;;;;;5032475;28;20065;-76
2023/01/28 04:24:14;;;;;;;15.27;9.03;;;;;;;;;;5032113;28;20029;-76
2023/01/28 04:26:41;;;;;;;14.13;8.43;;;;;;;;;;5030919;28;20077;-77
2023/01/28 04:29:07;;;;;;;12.90;8.17;;;;;;;;;;5032323;28;20569;-77
2023/01/28 04:31:33;;;;;;;13.13;8.13;;;;;;;;;;5032252;28;20450;-78
2023/01/28 04:34:00;;;;;;;14.33;8.60;;;;;;;;;;5030643;28;20103;-77
2023/01/28 04:36:26;;;;;;;13.73;8.50;;;;;;;;;;5032329;28;20499;-76
2023/01/28 04:38:52;;;;;;;13.77;8.07;;;;;;;;;;5031960;28;20065;-77
2023/01/28 04:41:19;;;;;;;13.87;8.33;;;;;;;;;;5031945;28;20525;-77
2023/01/28 04:43:45;;;;;;;12.60;8.20;;;;;;;;;;5030609;28;20037;-77
2023/01/28 04:46:11;;;;;;;14.40;8.17;;;;;;;;;;5032149;28;20030;-77
2023/01/28 04:48:37;;;;;;;12.87;8.70;;;;;;;;;;5031906;28;20034;-76
2023/01/28 04:51:04;;;;;;;12.23;7.77;;;;;;;;;;5032015;28;20084;-76
2023/01/28 04:53:30;;;;;;;13.63;8.37;;;;;;;;;;5030572;28;20033;-77
2023/01/28 04:55:56;;;;;;;16.37;8.50;;;;;;;;;;5032023;28;20593;-77
2023/01/28 04:58:22;;;;;;;15.43;8.30;;;;;;;;;;5032586;28;20033;-77
2023/01/28 05:00:53;;;;;;;14.57;8.90;;;;;;;;;;5035439;28;20187;-77
2023/01/28 05:03:20;;;;;;;14.63;8.80;;;;;;;;;;5035189;28;20135;-77
2023/01/28 05:05:46;;;;;;;17.43;9.17;;;;;;;;;;5035633;28;20033;-77
2023/01/28 05:08:12;;;;;;;13.00;8.30;;;;;;;;;;5035213;28;20091;-75
2023/01/28 05:10:39;;;;;;;16.93;9.03;;;;;;;;;;5035480;28;20515;-76
2023/01/28 05:13:05;;;;;;;14.87;8.20;;;;;;;;;;5035144;28;20026;-78
2023/01/28 05:15:31;;;;;;;16.87;9.63;;;;;;;;;;5035242;28;20068;-78
2023/01/28 05:17:58;;;;;;;15.87;9.10;;;;;;;;;;5035309;28;20365;-78
2023/01/28 05:20:25;;;;;;;13.60;8.83;;;;;;;;;;5035344;28;20046;-78
2023/01/28 05:22:51;;;;;;;14.63;8.47;;;;;;;;;;5034998;28;20044;-76
2023/01/28 05:25:17;;;;;;;16.90;9.40;;;;;;;;;;5035016;28;20072;-76
2023/01/28 05:27:43;;;;;;;15.87;9.50;;;;;;;;;;5033599;28;20099;-77
2023/01/28 05:30:10;;;;;;;15.73;9.63;;;;;;;;;;5035281;28;20092;-78
2023/01/28 05:32:36;;;;;;;15.47;9.63;;;;;;;;;;5033628;28;20434;-77
2023/01/28 05:35:02;;;;;;;14.27;8.93;;;;;;;;;;5034894;28;20038;-77
2023/01/28 05:37:28;;;;;;;16.87;10.60;;;;;;;;;;5034933;28;20033;-78
2023/01/28 05:39:54;;;;;;;13.97;8.97;;;;;;;;;;5034952;28;20117;-77
2023/01/28 05:42:21;;;;;;;15.63;9.57;;;;;;;;;;5034926;28;20029;-76
2023/01/28 05:44:47;;;;;;;15.00;9.20;;;;;;;;;;5034840;28;20025;-77
2023/01/28 05:47:13;;;;;;;15.13;9.33;;;;;;;;;;5034829;28;20052;-77
2023/01/28 05:49:39;;;;;;;16.20;9.37;;;;;;;;;;5034891;28;20087;-77
2023/01/28 05:52:05;;;;;;;14.97;9.23;;;;;;;;;;5034520;28;20490;-77
2023/01/28 05:54:31;;;;;;;16.73;9.47;;;;;;;;;;5034455;28;20069;-77
2023/01/28 05:56:57;;;;;;;14.13;9.10;;;;;;;;;;5033221;28;20029;-77
2023/01/28 05:59:23;;;;;;;14.83;8.40;;;;;;;;;;5034410;28;20053;-77
2023/01/28 06:01:49;;;;;;;14.93;9.20;;;;;;;;;;5034661;28;20065;-77
2023/01/28 06:04:17;;;;;;;16.30;8.87;;;;;;;;;;5034094;28;20537;-77
2023/01/28 06:06:44;;;;;;;19.43;8.77;;;;;;;;;;5033140;28;20046;-78
2023/01/28 06:09:10;;;;;;;14.63;9.23;;;;;;;;;;5034540;28;20022;-76
2023/01/28 06:11:36;;;;;;;16.43;9.90;;;;;;;;;;5033576;28;20034;-76
2023/01/28 06:14:02;;;;;;;14.73;9.07;;;;;;;;;;5034337;28;20076;-78
2023/01/28 06:16:28;;;;;;;15.50;8.60;;;;;;;;;;5034277;28;20033;-77
2023/01/28 06:18:54;;;;;;;15.33;9.10;;;;;;;;;;5033964;28;20033;-77
2023/01/28 06:21:20;;;;;;;15.97;9.43;;;;;;;;;;5034065;28;20475;-76
2023/01/28 06:23:46;;;;;;;14.07;8.80;;;;;;;;;;5033932;28;20064;-77
2023/01/28 06:26:12;;;;;;;14.97;8.57;;;;;;;;;;5034033;28;20487;-77
2023/01/28 06:28:38;;;;;;;18.60;9.37;;;;;;;;;;5034099;28;20109;-76
2023/01/28 06:31:05;;;;;;;15.57;8.87;;;;;;;;;;5033885;28;20037;-77
2023/01/28 06:33:31;;;;;;;16.43;8.50;;;;;;;;;;5033743;28;20029;-76
2023/01/28 06:35:57;;;;;;;14.20;8.83;;;;;;;;;;5033975;28;20091;-77
2023/01/28 06:38:23;;;;;;;15.67;8.53;;;;;;;;;;5033971;28;20558;-77
2023/01/28 06:40:54;;;;;;;14.13;8.60;;;;;;;;;;5033840;28;20040;-77
2023/01/28 06:43:26;;;;;;;17.30;8.90;;;;;;;;;;5033774;28;20471;-76
2023/01/28 06:45:52;;;;;;;16.93;10.10;;;;;;;;;;5032047;28;20091;-77
2023/01/28 06:48:18;;;;;;;15.87;9.70;;;;;;;;;;5035282;28;20045;-77
2023/01/28 06:50:46;;;;;;;15.03;9.23;;;;;;;;;;5033610;28;20113;-77
2023/01/28 06:53:12;;;;;;;16.93;9.50;;;;;;;;;;5033211;28;20040;-77
2023/01/28 06:55:38;;;;;;;14.77;9.33;;;;;;;;;;5032854;28;20088;-77
2023/01/28 06:58:04;;;;;;;13.43;8.37;;;;;;;;;;5032820;28;20041;-77
2023/01/28 07:00:30;;;;;;;12.60;8.03;;;;;;;;;;5032659;28;20116;-76
2023/01/28 07:02:57;;;;;;;14.93;9.13;;;;;;;;;;5032715;28;20102;-77
2023/01/28 07:05:23;;;;;;;15.27;8.77;;;;;;;;;;5032862;28;20471;-77
2023/01/28 07:07:49;;;;;;;14.07;8.63;;;;;;;;;;5032716;28;20483;-78
2023/01/28 07:10:15;;;;;;;16.13;8.73;;;;;;;;;;5033379;28;20080;-78
2023/01/28 07:12:41;;;;;;;13.67;8.57;;;;;;;;;;5033128;28;20384;-78
2023/01/28 07:15:09;;;;;;;15.57;8.60;;;;;;;;;;5032931;28;20537;-78
2023/01/28 07:17:35;;;;;;;13.23;8.73;;;;;;;;;;5033599;28;20395;-77
2023/01/28 07:20:01;;;;;;;17.23;9.40;;;;;;;;;;5032758;28;20184;-79
2023/01/28 07:22:28;;;;;;;14.30;8.57;;;;;;;;;;5031223;28;20063;-76
2023/01/28 07:24:54;;;;;;;16.00;9.37;;;;;;;;;;5030170;28;20039;-77
2023/01/28 07:27:20;;;;;;;16.97;8.93;;;;;;;;;;5030004;28;20491;-73
2023/01/28 07:29:46;;;;;;;15.53;9.77;;;;;;;;;;5031605;28;20040;-74
2023/01/28 07:32:12;;;;;;;17.03;10.10;;;;;;;;;;5032549;28;20037;-75
2023/01/28 07:34:40;;;;;;;17.23;10.17;;;;;;;;;;5031326;28;20069;-74
2023/01/28 07:37:06;;;;;;;16.17;9.43;;;;;;;;;;5030844;28;20044;-71
2023/01/28 07:39:33;;;;;;;15.30;9.40;;;;;;;;;;5031337;28;20034;-76
2023/01/28 07:41:59;;;;;;;16.50;10.10;;;;;;;;;;5032535;28;20100;-77
2023/01/28 07:44:25;;;;;;;17.20;10.10;;;;;;;;;;5030980;28;20120;-76
2023/01/28 07:46:52;;;;;;;18.50;9.40;;;;;;;;;;5032248;28;20053;-77
2023/01/28 07:49:18;;;;;;;16.10;9.17;;;;;;;;;;5032457;28;20036;-77
2023/01/28 07:51:45;;;;;;;16.03;9.33;;;;;;;;;;5030847;28;20038;-77
2023/01/28 07:54:12;;;;;;;15.30;8.87;;;;;;;;;;5029786;28;20026;-76
2023/01/28 07:56:38;;;;;;;17.70;8.90;;;;;;;;;;5029762;28;20112;-77
2023/01/28 07:59:04;;;;;;;15.27;9.53;;;;;;;;;;5032474;28;20060;-77
2023/01/28 08:01:30;;;;;;;14.97;9.00;;;;;;;;;;5032448;28;20053;-77
2023/01/28 08:03:56;;;;;;;16.10;9.60;;;;;;;;;;5032361;28;20034;-76
2023/01/28 08:06:22;;;;;;;19.73;9.83;;;;;;;;;;5032316;28;20068;-77
2023/01/28 08:08:48;;;;;;;15.33;9.07;;;;;;;;;;5032586;28;20041;-76
2023/01/28 08:11:14;;;;;;;16.43;10.20;;;;;;;;;;5032506;28;20022;-76
2023/01/28 08:13:40;;;;;;;18.17;10.10;;;;;;;;;;5032621;28;20033;-76
2023/01/28 08:16:07;;;;;;;19.10;9.77;;;;;;;;;;5032391;28;20487;-77
2023/01/28 08:18:33;;;;;;;17.13;10.47;;;;;;;;;;5032344;28;20033;-77
2023/01/28 08:20:59;;;;;;;16.87;10.10;;;;;;;;;;5031865;28;20044;-76
2023/01/28 08:23:26;;;;;;;18.33;11.20;;;;;;;;;;5030601;28;20034;-76
2023/01/28 08:25:53;;;;;;;16.73;10.10;;;;;;;;;;5030739;28;20038;-76
2023/01/28 08:28:19;;;;;;;17.67;10.43;;;;;;;;;;5032265;28;20050;-78
2023/01/28 08:30:46;;;;;;;17.43;10.40;;;;;;;;;;5031918;28;20582;-77
2023/01/28 08:33:13;;;;;;;19.47;9.93;;;;;;;;;;5032498;28;20041;-77
2023/01/28 08:35:40;;;;;;;17.07;10.93;;;;;;;;;;5034880;28;20048;-75
2023/01/28 08:38:06;;;;;;;17.23;10.10;;;;;;;;;;5036201;28;20490;-78
2023/01/28 08:40:33;;;;;;;18.40;10.37;;;;;;;;;;5035936;28;20103;-78
2023/01/28 08:42:59;;;;;;;17.53;10.67;;;;;;;;;;5036256;28;20044;-74
2023/01/28 08:45:26;;;;;;;15.57;9.43;;;;;;;;;;5035937;28;20120;-74
2023/01/28 08:47:54;;;;;;;16.97;10.50;;;;;;;;;;5035611;28;20037;-74
2023/01/28 08:50:21;;;;;;;15.57;9.97;;;;;;;;;;5035776;28;20040;-74
2023/01/28 08:52:48;;;;;;;17.27;10.20;;;;;;;;;;5035757;28;20039;-77
2023/01/28 08:55:15;;;;;;;17.80;9.90;;;;;;;;;;5034843;28;20463;-75
2023/01/28 08:57:41;;;;;;;19.53;10.10;;;;;;;;;;5035738;28;20033;-77
2023/01/28 09:00:11;;;;;;;16.07;9.80;;;;;;;;;;5034308;28;20057;-76
2023/01/28 09:02:37;;;;;;;16.80;8.77;;;;;;;;;;5034580;28;20087;-75
2023/01/28 09:05:04;;;;;;;18.00;9.70;;;;;;;;;;5033428;28;20037;-77
2023/01/28 09:07:30;;;;;;;16.37;9.87;;;;;;;;;;5035191;28;20045;-77
2023/01/28 09:09:56;;;;;;;17.13;10.63;;;;;;;;;;5035353;28;20036;-77
2023/01/28 09:12:22;;;;;;;13.90;9.57;;;;;;;;;;5035150;28;20105;-78
2023/01/28 09:14:48;;;;;;;18.03;10.13;;;;;;;;;;5035596;28;20041;-77
2023/01/28 09:17:14;;;;;;;17.57;9.80;;;;;;;;;;5035532;28;20038;-79
2023/01/28 09:19:40;;;;;;;15.73;9.77;;;;;;;;;;5035286;28;20148;-78
2023/01/28 09:22:06;;;;;;;15.70;10.20;;;;;;;;;;5034743;28;20029;-78
2023/01/28 09:24:32;;;;;;;18.17;10.13;;;;;;;;;;5034503;28;20575;-78
2023/01/28 09:26:59;;;;;;;16.63;10.00;;;;;;;;;;5033693;28;20045;-77
2023/01/28 09:29:25;;;;;;;19.93;10.13;;;;;;;;;;5032275;28;20037;-78
2023/01/28 09:31:51;;;;;;;14.40;9.33;;;;;;;;;;5032296;28;20044;-78
2023/01/28 09:34:17;;;;;;;17.00;10.00;;;;;;;;;;5034301;28;20032;-79
2023/01/28 09:36:43;;;;;;;15.00;9.30;;;;;;;;;;5034973;28;20108;-79
2023/01/28 09:39:09;;;;;;;15.53;9.50;;;;;;;;;;5033849;28;20043;-78
2023/01/28 09:41:35;;;;;;;18.67;10.20;;;;;;;;;;5035200;28;20025;-78
2023/01/28 09:44:06;;;;;;;16.17;9.60;;;;;;;;;;5034890;28;20108;-79
2023/01/28 09:46:34;;;;;;;14.17;9.23;;;;;;;;;;5032519;28;20509;-78
2023/01/28 09:49:02;;;;;;;17.50;9.20;;;;;;;;;;5034950;28;20406;-79
2023/01/28 09:51:39;;;;;;;21.77;9.27;;;;;;;;;;5034926;28;20518;-78
2023/01/28 09:54:12;;;;;;;15.40;10.37;;;;;;;;;;5032661;28;20033;-79
2023/01/28 09:56:41;;;;;;;16.33;10.52;;;;;;;;;;5030797;28;20044;-74
2023/01/28 09:59:20;;;;;;;18.77;9.70;;;;;;;;;;5032604;28;20517;-77
2023/01/28 10:01:50;;;;;;;16.77;9.90;;;;;;;;;;5033301;28;20087;-78
2023/01/28 10:04:21;;;;;;;18.70;10.37;;;;;;;;;;5034785;28;20124;-78
2023/01/28 10:06:58;;;;;;;15.47;10.03;;;;;;;;;;5033354;28;20049;-79
2023/01/28 10:09:24;;;;;;;17.43;10.07;;;;;;;;;;5034628;28;20029;-78
2023/01/28 10:12:09;;;;;;;19.93;10.43;;;;;;;;;;5033028;28;20034;-77
2023/01/28 10:14:38;;;;;;;16.67;10.17;;;;;;;;;;5033120;28;20069;-78
2023/01/28 10:17:12;;;;;;;15.40;9.37;;;;;;;;;;5034077;28;20036;-79
2023/01/28 10:19:59;;;;;;;18.57;9.83;;;;;;;;;;5034164;28;20410;-79
2023/01/28 10:22:29;;;;;;;14.93;9.53;;;;;;;;;;5034325;28;20045;-78
2023/01/28 10:24:57;;;;;;;15.23;9.33;;;;;;;;;;5034452;28;20029;-77
2023/01/28 10:27:24;;;;;;;14.90;9.33;;;;;;;;;;5034442;28;20085;-77
2023/01/28 10:29:51;;;;;;;16.33;9.83;;;;;;;;;;5033047;28;20030;-77
2023/01/28 10:32:29;;;;;;;16.77;9.63;;;;;;;;;;5034045;28;20368;-78
2023/01/28 10:34:58;;;;;;;16.37;10.13;;;;;;;;;;5033989;28;20510;-77
2023/01/28 10:37:25;;;;;;;14.40;9.67;;;;;;;;;;5034130;28;20037;-76
2023/01/28 10:39:53;;;;;;;17.27;10.20;;;;;;;;;;5034216;28;20032;-77
2023/01/28 10:42:35;;;;;;;18.43;10.00;;;;;;;;;;5033749;28;20033;-78
2023/01/28 10:45:05;;;;;;;21.03;9.90;;;;;;;;;;5033471;28;20087;-78
2023/01/28 10:47:52;;;;;;;15.40;9.80;;;;;;;;;;5033828;28;20049;-78
2023/01/28 10:50:22;;;;;;;16.40;9.77;;;;;;;;;;5033097;28;20052;-77
2023/01/28 10:52:54;;;;;;;15.87;10.10;;;;;;;;;;5033572;28;20025;-75
2023/01/28 10:55:20;;;;;;;14.93;9.37;;;;;;;;;;5033868;28;20373;-77
2023/01/28 10:57:46;;;;;;;14.37;9.47;;;;;;;;;;5033249;28;20252;-76
2023/01/28 11:00:22;;;;;;;13.47;8.97;;;;;;;;;;5033130;28;20052;-77
2023/01/28 11:02:49;;;;;;;14.70;9.27;;;;;;;;;;5033782;28;20422;-78
2023/01/28 11:05:15;;;;;;;16.43;10.03;;;;;;;;;;5033707;28;20080;-78
2023/01/28 11:07:42;;;;;;;15.97;9.57;;;;;;;;;;5032877;28;20048;-77
2023/01/28 11:10:23;;;;;;;15.50;9.83;;;;;;;;;;5033372;28;20044;-77
2023/01/28 11:12:54;;;;;;;15.93;9.30;;;;;;;;;;5031831;28;20040;-77
2023/01/28 11:15:20;;;;;;;14.57;8.93;;;;;;;;;;5031139;28;20079;-74
2023/01/28 11:17:48;;;;;;;14.60;8.77;;;;;;;;;;5032738;28;20037;-74
2023/01/28 11:20:23;;;;;;;15.50;8.80;;;;;;;;;;5031198;28;20547;-74
2023/01/28 11:22:49;;;;;;;14.93;10.13;;;;;;;;;;5032444;28;20095;-74
2023/01/28 11:25:17;;;;;;;15.53;9.00;;;;;;;;;;5032310;28;20045;-74
2023/01/28 11:27:47;;;;;;;13.77;9.03;;;;;;;;;;5032795;28;20045;-74
2023/01/28 11:30:33;;;;;;;15.20;9.00;;;;;;;;;;5032541;28;20437;-74
2023/01/28 11:33:19;;;;;;;14.57;8.47;;;;;;;;;;5033305;28;20029;-73
2023/01/28 11:35:55;;;;;;;15.70;9.23;;;;;;;;;;5032916;28;20094;-74
2023/01/28 11:38:22;;;;;;;14.53;8.97;;;;;;;;;;5031769;28;20033;-73
2023/01/28 11:40:50;;;;;;;14.47;9.10;;;;;;;;;;5032535;28;20434;-74
2023/01/28 11:43:16;;;;;;;17.10;9.87;;;;;;;;;;5032606;28;20491;-74
2023/01/28 11:45:48;;;;;;;18.03;10.10;;;;;;;;;;5032136;28;20112;-74
2023/01/28 11:48:33;;;;;;;20.60;10.35;;;;;;;;;;5028462;28;20076;-74
2023/01/28 11:51:02;;;;;;;14.90;9.50;;;;;;;;;;5029701;28;20041;-74
2023/01/28 11:53:46;;;;;;;15.37;9.93;;;;;;;;;;5031046;28;20034;-73
2023/01/28 11:56:30;;;;;;;17.20;9.63;;;;;;;;;;5031465;28;20484;-74
2023/01/28 11:59:20;;;;;;;16.10;9.77;;;;;;;;;;5032407;28;20129;-73
2023/01/28 12:01:58;;;;;;;15.77;10.17;;;;;;;;;;5031437;28;20084;-74
2023/01/28 12:04:42;;;;;;;15.67;10.10;;;;;;;;;;5032642;28;20112;-73
2023/01/28 12:07:11;;;;;;;19.93;10.83;;;;;;;;;;5032193;28;20049;-73
2023/01/28 12:09:56;;;;;;;22.57;10.73;;;;;;;;;;5035317;28;20402;-73
2023/01/28 12:12:52;;;;;;;15.97;10.40;;;;;;;;;;5033563;28;20105;-74
2023/01/28 12:15:18;;;;;;;18.07;11.43;;;;;;;;;;5033210;28;20212;-74
2023/01/28 12:17:56;;;;;;;13.93;9.10;;;;;;;;;;5035200;28;20033;-74
2023/01/28 12:20:41;;;;;;;15.80;9.77;;;;;;;;;;5036344;28;20038;-73
2023/01/28 12:23:18;;;;;;;14.50;9.30;;;;;;;;;;5035766;28;20032;-73
2023/01/28 12:25:53;;;;;;;15.60;9.87;;;;;;;;;;5035669;28;20035;-74
2023/01/28 12:28:29;;;;;;;16.13;10.43;;;;;;;;;;5035800;28;20037;-73
2023/01/28 12:31:10;;;;;;;14.87;9.47;;;;;;;;;;5036069;28;20040;-74
2023/01/28 12:33:53;;;;;;;15.43;10.37;;;;;;;;;;5036031;28;20045;-74
2023/01/28 12:36:19;;;;;;;16.08;10.00;;;;;;;;;;5034874;28;20045;-73
2023/01/28 12:38:57;;;;;;;17.10;10.03;;;;;;;;;;5035825;28;20155;-74
2023/01/28 12:41:26;;;;;;;18.23;10.43;;;;;;;;;;5034436;28;20037;-71
2023/01/28 12:43:52;;;;;;;18.43;10.67;;;;;;;;;;5035689;28;20025;-74
2023/01/28 12:46:24;;;;;;;16.20;11.27;;;;;;;;;;5035680;28;20479;-74
2023/01/28 12:48:53;;;;;;;17.95;10.90;;;;;;;;;;5035123;28;20041;-73
2023/01/28 12:51:34;;;;;;;15.83;9.73;;;;;;;;;;5035474;28;20030;-74
2023/01/28 12:54:03;;;;;;;16.83;9.50;;;;;;;;;;5034356;28;20030;-74
2023/01/28 12:56:33;;;;;;;20.43;10.97;;;;;;;;;;5035558;28;20116;-73
2023/01/28 12:59:10;;;;;;;15.50;10.10;;;;;;;;;;5035548;28;20053;-74
2023/01/28 13:01:42;;;;;;;17.47;9.73;;;;;;;;;;5035215;28;20080;-77
2023/01/28 13:04:12;;;;;;;15.20;9.80;;;;;;;;;;5035288;28;20034;-74
2023/01/28 13:06:41;;;;;;;15.57;10.00;;;;;;;;;;5035520;28;20041;-74
2023/01/28 13:09:26;;;;;;;17.10;11.07;;;;;;;;;;5035422;28;20040;-74
2023/01/28 13:11:56;;;;;;;15.27;9.93;;;;;;;;;;5035099;28;20029;-73
2023/01/28 13:14:24;;;;;;;16.97;10.83;;;;;;;;;;5035168;28;20038;-74
2023/01/28 13:16:50;;;;;;;15.47;10.10;;;;;;;;;;5035304;28;20036;-74
2023/01/28 13:19:17;;;;;;;15.47;10.43;;;;;;;;;;5034674;28;20029;-73
2023/01/28 13:21:43;;;;;;;16.00;10.10;;;;;;;;;;5034933;28;20116;-74
2023/01/28 13:24:10;;;;;;;16.13;10.77;;;;;;;;;;5034997;28;20041;-74
2023/01/28 13:26:39;;;;;;;17.97;10.83;;;;;;;;;;5034761;28;20072;-74
2023/01/28 13:29:17;;;;;;;20.60;11.83;;;;;;;;;;5034581;28;20026;-74
2023/01/28 13:31:44;;;;;;;21.50;11.83;;;;;;;;;;5034462;28;20064;-74
2023/01/28 13:34:26;;;;;;;19.30;11.97;;;;;;;;;;5034443;28;20037;-74
2023/01/28 13:36:52;;;;;;;18.83;11.13;;;;;;;;;;5034963;28;20033;-75
2023/01/28 13:39:20;;;;;;;18.77;11.27;;;;;;;;;;5034998;28;20041;-74
2023/01/28 13:41:48;;;;;;;16.83;10.87;;;;;;;;;;5034119;28;20030;-73
2023/01/28 13:44:18;;;;;;;20.27;11.47;;;;;;;;;;5034212;28;20076;-75
2023/01/28 13:46:44;;;;;;;18.70;11.30;;;;;;;;;;5032882;28;20045;-75
2023/01/28 13:49:13;;;;;;;19.60;11.33;;;;;;;;;;5033892;28;20072;-74
2023/01/28 13:51:44;;;;;;;16.80;10.93;;;;;;;;;;5034217;28;20065;-75
2023/01/28 13:54:29;;;;;;;19.27;12.13;;;;;;;;;;5032237;28;20033;-75
2023/01/28 13:56:58;;;;;;;19.00;10.90;;;;;;;;;;5031720;28;20379;-75
2023/01/28 13:59:30;;;;;;;19.63;12.43;;;;;;;;;;5031802;28;20050;-74
2023/01/28 14:01:56;;;;;;;20.67;12.50;;;;;;;;;;5037472;28;20532;-78
2023/01/28 14:04:41;;;;;;;20.63;12.03;;;;;;;;;;5054052;28;20068;-73
2023/01/28 14:07:07;;;;;;;20.70;13.20;;;;;;;;;;5054400;28;20064;-77
2023/01/28 14:09:33;;;;;;;19.57;11.60;;;;;;;;;;5054080;28;20033;-73
2023/01/28 14:12:18;;;;;;;20.67;12.43;;;;;;;;;;5052277;28;20098;-78
2023/01/28 14:14:56;;;;;;;19.93;12.70;;;;;;;;;;5034353;28;20080;-73
2023/01/28 14:17:48;;;;;;;20.00;12.37;;;;;;;;;;5033984;28;20038;-74
2023/01/28 14:20:26;;;;;;;26.93;12.33;;;;;;;;;;5033483;28;20038;-73
2023/01/28 14:22:56;;;;;;;22.80;13.40;;;;;;;;;;5032366;28;20091;-73
2023/01/28 14:25:28;;;;;;;20.13;12.80;;;;;;;;;;5031739;28;20128;-73
2023/01/28 14:27:55;;;;;;;24.52;13.07;;;;;;;;;;5033855;28;20045;-73
2023/01/28 14:30:40;;;;;;;20.33;13.07;;;;;;;;;;5034148;28;20034;-74
2023/01/28 14:33:10;;;;;;;21.77;12.37;;;;;;;;;;5034098;28;20499;-73
2023/01/28 14:35:38;;;;;;;18.47;11.87;;;;;;;;;;5033991;28;20418;-73
2023/01/28 14:38:08;;;;;;;23.80;12.50;;;;;;;;;;5033589;28;20064;-73
2023/01/28 14:40:37;;;;;;;19.23;12.50;;;;;;;;;;5033742;28;20072;-74
2023/01/28 14:43:05;;;;;;;22.53;13.47;;;;;;;;;;5034112;28;20036;-73
2023/01/28 14:45:50;;;;;;;21.03;13.63;;;;;;;;;;5034060;28;20513;-74
2023/01/28 14:48:37;;;;;;;20.73;13.30;;;;;;;;;;5033446;28;20050;-73
2023/01/28 14:51:27;;;;;;;22.70;12.97;;;;;;;;;;5033791;28;20025;-73
2023/01/28 14:54:20;;;;;;;22.07;14.03;;;;;;;;;;5033599;28;20064;-75
2023/01/28 14:57:04;;;;;;;21.63;14.07;;;;;;;;;;5033248;28;20069;-73
2023/01/28 14:59:36;;;;;;;27.50;13.40;;;;;;;;;;5033423;28;20148;-74
2023/01/28 15:02:16;;;;;;;22.25;13.93;;;;;;;;;;5033531;28;20030;-73
2023/01/28 15:04:42;;;;;;;24.30;14.67;;;;;;;;;;5033509;28;20029;-73
2023/01/28 15:07:16;;;;;;;25.20;14.50;;;;;;;;;;5033446;28;20041;-74
2023/01/28 15:09:42;;;;;;;22.97;14.10;;;;;;;;;;5033402;28;20044;-73